createdAt,value
2023-03-16T00:01:25.933Z,20.80
2023-03-16T00:07:27.568Z,18.80
2023-03-16T00:13:29.567Z,21.10
2023-03-16T00:19:34.448Z,21.90
2023-03-16T00:25:36.015Z,21.80
2023-03-16T00:31:44.567Z,19.60
2023-03-16T00:37:46.837Z,20.80
2023-03-16T00:43:48.438Z,21.30
2023-03-16T00:49:50.077Z,21.80
2023-03-16T00:55:52.822Z,24.70
2023-03-16T01:01:54.852Z,23.60
2023-03-16T01:07:56.420Z,23.40
2023-03-16T01:13:57.902Z,22.30
2023-03-16T01:19:59.327Z,22.30
2023-03-16T01:26:01.589Z,21.30
2023-03-16T01:32:04.043Z,27.60
2023-03-16T01:38:05.649Z,21.40
2023-03-16T01:44:12.082Z,22.70
2023-03-16T01:50:15.568Z,19.30
2023-03-16T01:56:20.078Z,20.10
2023-03-16T02:02:24.040Z,21.10
2023-03-16T02:08:27.105Z,17.00
2023-03-16T02:14:28.762Z,17.50
2023-03-16T02:20:46.597Z,20.20
2023-03-16T02:27:15.896Z,20.10
2023-03-16T02:33:19.313Z,14.80
2023-03-16T02:39:20.935Z,15.10
2023-03-16T02:45:25.792Z,17.80
2023-03-16T02:51:27.350Z,18.30
2023-03-16T02:57:32.592Z,18.80
2023-03-16T03:03:38.529Z,22.50
2023-03-16T03:09:43.392Z,22.90
2023-03-16T03:15:45.125Z,27.70
2023-03-16T03:21:46.850Z,27.20
2023-03-16T03:27:49.770Z,25.00
2023-03-16T03:39:56.798Z,32.70
2023-03-16T03:46:02.536Z,27.80
2023-03-16T03:52:06.320Z,28.70
2023-03-16T03:58:08.208Z,30.90
2023-03-16T04:04:10.339Z,28.60
2023-03-16T04:10:11.930Z,27.10
2023-03-16T04:16:16.659Z,28.20
2023-03-16T04:22:22.534Z,33.60
2023-03-16T04:28:25.636Z,33.00
2023-03-16T04:34:27.680Z,33.40
2023-03-16T04:40:31.719Z,33.30
2023-03-16T04:46:41.674Z,33.40
2023-03-16T04:52:44.506Z,34.20
2023-03-16T04:58:48.764Z,37.80
2023-03-16T05:04:50.716Z,40.90
2023-03-16T05:10:57.003Z,38.40
2023-03-16T05:16:59.088Z,39.40
2023-03-16T05:23:00.843Z,41.30
2023-03-16T05:29:05.859Z,44.10
2023-03-16T05:35:09.478Z,38.00
2023-03-16T05:41:11.374Z,39.20
2023-03-16T05:47:21.079Z,35.20
2023-03-16T05:53:28.086Z,41.30
2023-03-16T05:59:34.407Z,38.50
2023-03-16T06:05:37.967Z,34.00
2023-03-16T06:11:40.008Z,37.20
2023-03-16T06:17:42.050Z,37.60
2023-03-16T06:23:43.983Z,43.90
2023-03-16T06:29:47.054Z,38.90
2023-03-16T06:35:49.278Z,41.10
2023-03-16T06:41:56.985Z,45.70
2023-03-16T06:47:59.120Z,43.30
2023-03-16T06:54:01.387Z,41.90
2023-03-16T07:00:09.319Z,39.70
2023-03-16T07:06:11.520Z,37.80
2023-03-16T07:12:17.050Z,37.20
2023-03-16T07:18:20.354Z,39.40
2023-03-16T07:24:23.791Z,39.30
2023-03-16T07:30:27.083Z,33.10
2023-03-16T07:36:29.760Z,35.00
2023-03-16T07:42:34.918Z,28.00
2023-03-16T07:48:50.384Z,29.00
2023-03-16T07:54:54.296Z,29.30
2023-03-16T08:01:00.820Z,28.10
2023-03-16T08:07:03.036Z,29.40
2023-03-16T08:13:18.984Z,31.00
2023-03-16T08:19:21.969Z,33.40
2023-03-16T08:25:26.045Z,32.10
2023-03-16T08:31:43.360Z,25.90
2023-03-16T08:37:55.825Z,27.40
2023-03-16T08:43:58.574Z,27.20
2023-03-16T08:50:01.153Z,22.80
2023-03-16T08:56:08.951Z,31.50
2023-03-16T09:02:20.059Z,25.50
2023-03-16T09:08:31.606Z,24.50
2023-03-16T09:14:39.566Z,27.30
2023-03-16T09:20:47.076Z,24.80
2023-03-16T09:26:51.890Z,24.30
2023-03-16T09:32:54.274Z,20.70
2023-03-16T09:39:00.125Z,20.00
2023-03-16T09:45:31.416Z,18.60
2023-03-16T09:51:54.249Z,17.60
2023-03-16T09:57:58.230Z,13.10
2023-03-16T10:04:28.620Z,14.60
2023-03-16T10:10:40.472Z,9.20
2023-03-16T10:16:50.785Z,9.90
2023-03-16T10:22:53.938Z,9.20
2023-03-16T10:28:55.819Z,10.30
2023-03-16T10:35:27.657Z,13.40
2023-03-16T10:41:38.168Z,12.10
2023-03-16T10:47:41.363Z,14.00
2023-03-16T10:53:47.056Z,10.30
2023-03-16T10:59:56.077Z,10.50
2023-03-16T11:06:03.658Z,13.10
2023-03-16T11:12:42.484Z,11.70
2023-03-16T11:18:48.106Z,7.90
2023-03-16T11:25:11.528Z,9.50
2023-03-16T11:31:26.951Z,13.10
2023-03-16T11:37:34.985Z,11.00
2023-03-16T11:43:54.479Z,13.50
2023-03-16T11:50:24.809Z,11.10
2023-03-16T11:56:35.168Z,15.00
2023-03-16T12:02:56.263Z,12.30
2023-03-16T12:09:11.784Z,10.00
2023-03-16T12:15:27.410Z,15.00
2023-03-16T12:21:38.599Z,12.90
2023-03-16T12:27:42.211Z,9.70
2023-03-16T12:34:19.010Z,8.40
2023-03-16T12:40:54.665Z,7.40
2023-03-16T12:47:24.916Z,9.20
2023-03-16T12:53:51.031Z,10.30
2023-03-16T12:59:57.680Z,9.80
2023-03-16T13:06:01.712Z,8.10
2023-03-16T13:12:05.888Z,8.40
2023-03-16T13:18:09.170Z,7.10
2023-03-16T13:24:36.124Z,8.20
2023-03-16T13:30:47.906Z,7.40
2023-03-16T13:36:54.544Z,6.00
2023-03-16T13:42:57.991Z,6.50
2023-03-16T13:49:01.560Z,5.00
2023-03-16T13:55:15.450Z,4.40
2023-03-16T14:01:18.214Z,4.90
2023-03-16T14:07:23.148Z,5.60
2023-03-16T14:13:28.422Z,4.80
2023-03-16T14:19:37.943Z,3.60
2023-03-16T14:25:39.478Z,6.30
2023-03-16T14:31:41.134Z,5.40
2023-03-16T14:37:44.136Z,5.70
2023-03-16T14:43:52.305Z,5.20
2023-03-16T14:49:59.428Z,4.70
2023-03-16T14:56:01.147Z,3.90
2023-03-16T15:02:06.722Z,7.60
2023-03-16T15:08:22.203Z,5.30
2023-03-16T15:14:42.447Z,5.90
2023-03-16T15:20:44.866Z,7.80
2023-03-16T15:26:46.438Z,7.30
2023-03-16T15:32:48.012Z,8.30
2023-03-16T15:38:51.970Z,4.70
2023-03-16T15:44:53.625Z,4.90
2023-03-16T15:50:57.863Z,4.80
2023-03-16T15:56:59.527Z,4.10
2023-03-16T16:03:02.283Z,8.00
2023-03-16T16:09:05.284Z,6.00
2023-03-16T16:15:19.668Z,10.40
2023-03-16T16:21:28.513Z,5.90
2023-03-16T16:27:30.287Z,8.50
2023-03-16T16:33:34.330Z,5.40
2023-03-16T16:39:35.888Z,8.10
2023-03-16T16:45:38.005Z,7.40
2023-03-16T16:51:39.859Z,5.90
2023-03-16T16:57:41.408Z,8.10
2023-03-16T17:03:43.051Z,5.70
2023-03-16T17:09:44.703Z,9.00
2023-03-16T17:15:46.766Z,6.90
2023-03-16T17:21:49.585Z,10.70
2023-03-16T17:27:52.860Z,14.40
2023-03-16T17:33:56.375Z,10.00
2023-03-16T17:40:06.082Z,11.50
2023-03-16T17:46:10.736Z,8.50
2023-03-16T17:52:18.070Z,9.90
2023-03-16T17:58:26.850Z,9.60
2023-03-16T18:04:28.821Z,7.10
2023-03-16T18:10:32.519Z,6.70
2023-03-16T18:16:34.622Z,7.60
2023-03-16T18:22:36.253Z,11.80
2023-03-16T18:28:38.132Z,11.70
2023-03-16T18:34:40.529Z,9.30
2023-03-16T18:40:42.322Z,9.20
2023-03-16T18:46:44.673Z,7.40
2023-03-16T18:52:46.871Z,8.90
2023-03-16T18:58:50.479Z,8.40
2023-03-16T19:04:55.878Z,9.20
2023-03-16T19:11:00.566Z,11.60
2023-03-16T19:17:02.450Z,14.10
2023-03-16T19:23:07.461Z,14.40
2023-03-16T19:29:12.521Z,14.10
2023-03-16T19:35:17.413Z,19.20
2023-03-16T19:41:27.689Z,18.10
2023-03-16T19:47:31.572Z,19.90
2023-03-16T20:01:33.147Z,22.50
2023-03-16T20:07:37.570Z,20.00
2023-03-16T20:13:46.141Z,22.80
2023-03-16T20:19:49.072Z,27.20
2023-03-16T20:25:56.567Z,23.70
2023-03-16T20:32:16.352Z,22.70
2023-03-16T20:38:33.778Z,24.90
2023-03-16T20:44:49.924Z,25.80
2023-03-16T20:51:09.982Z,31.80
2023-03-16T20:57:26.980Z,27.20
2023-03-16T21:03:30.242Z,25.60
2023-03-16T21:09:49.931Z,25.60
2023-03-16T21:15:55.090Z,28.20
2023-03-16T21:21:57.706Z,28.30
2023-03-16T21:28:02.894Z,30.40
2023-03-16T21:34:05.183Z,35.10
2023-03-16T21:40:33.399Z,35.90
2023-03-16T21:46:36.083Z,35.70
2023-03-16T21:52:44.368Z,36.30
2023-03-16T21:58:46.616Z,36.30
2023-03-16T22:04:49.450Z,39.60
2023-03-16T22:10:51.527Z,36.70
2023-03-16T22:16:53.002Z,34.80
2023-03-16T22:22:58.075Z,40.90
2023-03-16T22:29:00.612Z,39.00
2023-03-16T22:35:04.472Z,34.60
2023-03-16T22:41:07.047Z,36.30
2023-03-16T22:47:23.649Z,33.90
2023-03-16T22:53:32.209Z,34.40
2023-03-16T22:59:34.303Z,35.20
2023-03-16T23:05:35.947Z,41.60
2023-03-16T23:11:37.961Z,38.70
2023-03-16T23:17:39.958Z,37.60
2023-03-16T23:23:46.196Z,37.00
2023-03-16T23:29:52.599Z,39.90
2023-03-16T23:35:54.195Z,39.50
2023-03-16T23:41:56.578Z,40.40
2023-03-16T23:47:59.775Z,41.10
2023-03-16T23:54:04.809Z,38.10
